La rose des vents
Donnes mto: Semaine 23/06/08 - 29/06/08 (S 26)
Date Horaire Temp. E. Hum. E. P.atmo. Pluie Vent 1mn Direction Ensoleilleme Ev.Tr. Solaire P. de rose Temp au vent Rafales
23/06/2008 00:00 21,8 C 70 % 1017,6 hPa 0,0 l/m 2,3 km/h (1 Bft) N-NO 0,00 h 0,051 mm 0 W/m 15,9 C 21,8 C 3,5 km/h (1 Bft)
23/06/2008 01:00 21,9 C 67 % 1017,5 hPa 0,0 l/m 4,9 km/h (1 Bft) O-NO 0,00 h 0,051 mm 0 W/m 15,4 C 21,9 C 6,1 km/h (2 Bft)
23/06/2008 02:00 21,5 C 65 % 1017,3 hPa 0,0 l/m 4,3 km/h (1 Bft) O-NO 0,00 h 0,051 mm 0 W/m 14,6 C 21,5 C 6,0 km/h (2 Bft)
23/06/2008 03:00 21,0 C 64 % 1017,3 hPa 0,0 l/m 4,0 km/h (1 Bft) O 0,00 h 0,051 mm 0 W/m 13,9 C 21,0 C 6,2 km/h (2 Bft)
23/06/2008 04:00 20,3 C 66 % 1017,2 hPa 0,0 l/m 2,9 km/h (1 Bft) NO 0,00 h 0,051 mm 0 W/m 13,8 C 20,3 C 4,8 km/h (1 Bft)
23/06/2008 05:00 19,8 C 67 % 1017,3 hPa 0,0 l/m 3,4 km/h (1 Bft) NO 0,00 h 0,051 mm 6 W/m 13,6 C 19,8 C 5,4 km/h (1 Bft)
23/06/2008 06:00 20,5 C 64 % 1017,2 hPa 0,0 l/m 3,4 km/h (1 Bft) NO 0,02 h 0,025 mm 18 W/m 13,5 C 20,5 C 5,3 km/h (1 Bft)
23/06/2008 07:00 21,9 C 63 % 1017,2 hPa 0,0 l/m 1,4 km/h (1 Bft) NO 0,43 h 0,025 mm 125 W/m 14,5 C 21,9 C 2,5 km/h (1 Bft)
23/06/2008 08:00 24,5 C 58 % 1017,6 hPa 0,0 l/m 1,3 km/h (1 Bft) E 1,00 h 0,102 mm 375 W/m 15,7 C 24,5 C 2,7 km/h (1 Bft)
23/06/2008 09:00 25,9 C 56 % 1017,8 hPa 0,0 l/m 3,6 km/h (1 Bft) E 1,00 h 0,254 mm 544 W/m 16,4 C 25,9 C 5,8 km/h (2 Bft)
23/06/2008 10:00 27,4 C 51 % 1017,9 hPa 0,0 l/m 5,9 km/h (2 Bft) E 1,00 h 0,381 mm 694 W/m 16,5 C 27,4 C 8,5 km/h (2 Bft)
23/06/2008 11:00 27,9 C 50 % 1017,9 hPa 0,0 l/m 7,8 km/h (2 Bft) E 1,00 h 0,508 mm 813 W/m 16,6 C 27,9 C 10,6 km/h (2 Bft)
23/06/2008 12:00 28,9 C 50 % 1018,1 hPa 0,0 l/m 9,2 km/h (2 Bft) E 1,00 h 0,584 mm 891 W/m 17,3 C 28,9 C 13,0 km/h (3 Bft)
23/06/2008 13:00 28,3 C 51 % 1017,8 hPa 0,0 l/m 9,2 km/h (2 Bft) E 1,00 h 0,660 mm 918 W/m 17,1 C 28,3 C 13,2 km/h (3 Bft)
23/06/2008 14:00 28,7 C 51 % 1017,6 hPa 0,0 l/m 9,0 km/h (2 Bft) E 1,00 h 0,686 mm 896 W/m 17,5 C 28,7 C 12,8 km/h (3 Bft)
23/06/2008 15:00 28,7 C 53 % 1017,4 hPa 0,0 l/m 7,4 km/h (2 Bft) E 1,00 h 0,660 mm 822 W/m 18,1 C 28,7 C 10,8 km/h (2 Bft)
23/06/2008 16:00 28,7 C 61 % 1017,0 hPa 0,0 l/m 8,3 km/h (2 Bft) E 1,00 h 0,610 mm 698 W/m 20,4 C 28,7 C 11,9 km/h (2 Bft)
23/06/2008 17:00 27,5 C 66 % 1016,7 hPa 0,0 l/m 7,1 km/h (2 Bft) E 1,00 h 0,508 mm 546 W/m 20,5 C 27,5 C 10,3 km/h (2 Bft)
23/06/2008 18:00 26,7 C 71 % 1016,4 hPa 0,0 l/m 4,4 km/h (1 Bft) E-SE 1,00 h 0,406 mm 371 W/m 20,8 C 26,7 C 6,8 km/h (2 Bft)
23/06/2008 19:00 25,9 C 72 % 1016,0 hPa 0,0 l/m 1,0 km/h (0 Bft) E 1,00 h 0,254 mm 198 W/m 20,5 C 25,9 C 2,3 km/h (1 Bft)
23/06/2008 20:00 24,8 C 74 % 1015,7 hPa 0,0 l/m 0,6 km/h (0 Bft) E 0,03 h 0,127 mm 45 W/m 19,8 C 24,8 C 1,3 km/h (1 Bft)
23/06/2008 21:00 23,1 C 79 % 1015,8 hPa 0,0 l/m 0,1 km/h (0 Bft) E 0,05 h 0,051 mm 8 W/m 19,3 C 23,1 C 0,5 km/h (0 Bft)
23/06/2008 22:00 21,9 C 82 % 1016,1 hPa 0,0 l/m 1,8 km/h (1 Bft) E 0,00 h 0,000 mm 0 W/m 18,6 C 21,9 C 3,1 km/h (1 Bft)
23/06/2008 23:00 21,1 C 84 % 1016,2 hPa 0,0 l/m 2,5 km/h (1 Bft) NO 0,00 h 0,025 mm 0 W/m 18,4 C 21,1 C 3,8 km/h (1 Bft)
24/06/2008 00:00 20,9 C 83 % 1016,3 hPa 0,0 l/m 3,3 km/h (1 Bft) NO 0,00 h 0,025 mm 0 W/m 17,8 C 20,9 C 4,9 km/h (1 Bft)
24/06/2008 01:00 20,5 C 79 % 1015,9 hPa 0,0 l/m 2,3 km/h (1 Bft) O-NO 0,00 h 0,025 mm 0 W/m 16,8 C 20,5 C 3,6 km/h (1 Bft)
24/06/2008 02:00 20,4 C 76 % 1015,6 hPa 0,0 l/m 4,8 km/h (1 Bft) O 0,00 h 0,025 mm 0 W/m 16,0 C 20,4 C 6,1 km/h (2 Bft)
24/06/2008 03:00 20,0 C 72 % 1015,5 hPa 0,0 l/m 2,6 km/h (1 Bft) O 0,00 h 0,051 mm 0 W/m 14,7 C 20,0 C 4,3 km/h (1 Bft)
24/06/2008 04:00 19,6 C 77 % 1015,5 hPa 0,0 l/m 0,5 km/h (0 Bft) N-NO 0,00 h 0,051 mm 0 W/m 15,5 C 19,6 C 1,0 km/h (0 Bft)
24/06/2008 05:00 18,7 C 82 % 1015,6 hPa 0,0 l/m 0,9 km/h (0 Bft) NO 0,00 h 0,025 mm 6 W/m 15,5 C 18,7 C 1,4 km/h (1 Bft)
24/06/2008 06:00 18,6 C 80 % 1015,7 hPa 0,0 l/m 0,5 km/h (0 Bft) N-NO 0,05 h 0,000 mm 33 W/m 15,1 C 18,6 C 1,1 km/h (0 Bft)
24/06/2008 07:00 20,1 C 77 % 1015,8 hPa 0,0 l/m 1,0 km/h (0 Bft) N-NE 0,35 h 0,025 mm 131 W/m 16,0 C 20,1 C 2,7 km/h (1 Bft)
24/06/2008 08:00 22,5 C 66 % 1015,8 hPa 0,0 l/m 2,5 km/h (1 Bft) E 1,00 h 0,076 mm 324 W/m 15,8 C 22,5 C 4,5 km/h (1 Bft)
24/06/2008 09:00 24,7 C 61 % 1016,3 hPa 0,0 l/m 1,0 km/h (0 Bft) E-NE 1,00 h 0,203 mm 491 W/m 16,7 C 24,7 C 2,7 km/h (1 Bft)
24/06/2008 10:00 26,6 C 57 % 1016,2 hPa 0,0 l/m 4,4 km/h (1 Bft) E 0,97 h 0,305 mm 635 W/m 17,4 C 26,6 C 7,0 km/h (2 Bft)
24/06/2008 11:00 28,0 C 49 % 1016,2 hPa 0,0 l/m 5,3 km/h (1 Bft) E 1,00 h 0,432 mm 753 W/m 16,3 C 28,0 C 9,2 km/h (2 Bft)
24/06/2008 12:00 28,8 C 43 % 1016,4 hPa 0,0 l/m 6,4 km/h (2 Bft) E 1,00 h 0,533 mm 850 W/m 14,9 C 28,8 C 10,5 km/h (2 Bft)
24/06/2008 13:00 29,2 C 41 % 1016,0 hPa 0,0 l/m 6,0 km/h (2 Bft) E 1,00 h 0,635 mm 878 W/m 14,5 C 29,2 C 11,1 km/h (2 Bft)
24/06/2008 14:00 28,9 C 42 % 1015,6 hPa 0,0 l/m 6,0 km/h (2 Bft) E 1,00 h 0,635 mm 846 W/m 14,8 C 28,9 C 10,2 km/h (2 Bft)
24/06/2008 15:00 29,2 C 44 % 1015,5 hPa 0,0 l/m 7,6 km/h (2 Bft) E-NE 1,00 h 0,610 mm 777 W/m 15,8 C 29,2 C 12,2 km/h (3 Bft)
24/06/2008 16:00 29,2 C 45 % 1015,3 hPa 0,0 l/m 5,4 km/h (1 Bft) E 1,00 h 0,584 mm 669 W/m 16,1 C 29,2 C 8,8 km/h (2 Bft)
24/06/2008 17:00 28,7 C 46 % 1015,1 hPa 0,0 l/m 3,8 km/h (1 Bft) E 1,00 h 0,508 mm 502 W/m 16,0 C 28,7 C 6,3 km/h (2 Bft)
24/06/2008 18:00 27,7 C 49 % 1014,7 hPa 0,0 l/m 2,1 km/h (1 Bft) E 1,00 h 0,381 mm 350 W/m 15,9 C 27,7 C 4,5 km/h (1 Bft)
24/06/2008 19:00 26,4 C 56 % 1014,5 hPa 0,0 l/m 0,6 km/h (0 Bft) E-SE 0,17 h 0,254 mm 129 W/m 16,8 C 26,4 C 2,1 km/h (1 Bft)
24/06/2008 20:00 24,5 C 60 % 1014,5 hPa 0,0 l/m 0,1 km/h (0 Bft) E-SE 0,00 h 0,102 mm 37 W/m 16,2 C 24,5 C 0,7 km/h (0 Bft)
24/06/2008 21:00 23,2 C 64 % 1014,4 hPa 0,0 l/m 0,6 km/h (0 Bft) E-SE 0,00 h 0,025 mm 8 W/m 16,1 C 23,2 C 1,5 km/h (1 Bft)
24/06/2008 22:00 22,1 C 67 % 1014,5 hPa 0,0 l/m 2,4 km/h (1 Bft) E-SE 0,00 h 0,025 mm 0 W/m 15,8 C 22,1 C 4,1 km/h (1 Bft)
24/06/2008 23:00 21,3 C 67 % 1014,4 hPa 0,0 l/m 1,9 km/h (1 Bft) NO 0,00 h 0,051 mm 0 W/m 14,9 C 21,3 C 3,2 km/h (1 Bft)
25/06/2008 00:00 21,3 C 62 % 1014,5 hPa 0,0 l/m 2,5 km/h (1 Bft) O 0,00 h 0,051 mm 0 W/m 13,8 C 21,3 C 3,6 km/h (1 Bft)
25/06/2008 01:00 21,0 C 60 % 1014,4 hPa 0,0 l/m 1,1 km/h (0 Bft) N-NO 0,00 h 0,051 mm 0 W/m 12,8 C 21,0 C 1,9 km/h (1 Bft)
25/06/2008 02:00 20,9 C 54 % 1014,1 hPa 0,0 l/m 6,9 km/h (2 Bft) O-NO 0,00 h 0,051 mm 0 W/m 11,3 C 20,9 C 9,5 km/h (2 Bft)
25/06/2008 03:00 20,5 C 52 % 1013,8 hPa 0,0 l/m 5,1 km/h (1 Bft) N-NO 0,00 h 0,076 mm 0 W/m 10,3 C 20,5 C 7,7 km/h (2 Bft)
25/06/2008 04:00 21,1 C 49 % 1013,5 hPa 0,0 l/m 3,5 km/h (1 Bft) O 0,00 h 0,076 mm 0 W/m 10,0 C 21,1 C 5,2 km/h (1 Bft)
25/06/2008 05:00 21,0 C 49 % 1013,5 hPa 0,0 l/m 5,2 km/h (1 Bft) O-NO 0,00 h 0,076 mm 6 W/m 9,7 C 21,0 C 7,6 km/h (2 Bft)
25/06/2008 06:00 20,6 C 54 % 1014,1 hPa 0,0 l/m 2,1 km/h (1 Bft) N-NO 0,03 h 0,051 mm 30 W/m 11,0 C 20,6 C 3,4 km/h (1 Bft)
25/06/2008 07:00 21,5 C 56 % 1014,3 hPa 0,0 l/m 2,3 km/h (1 Bft) O-NO 0,35 h 0,051 mm 127 W/m 12,4 C 21,5 C 4,3 km/h (1 Bft)
25/06/2008 08:00 24,5 C 51 % 1014,4 hPa 0,0 l/m 0,5 km/h (0 Bft) O-NO 1,00 h 0,102 mm 340 W/m 13,6 C 24,5 C 1,6 km/h (1 Bft)
25/06/2008 09:00 26,9 C 47 % 1014,3 hPa 0,0 l/m 2,1 km/h (1 Bft) E-NE 1,00 h 0,229 mm 514 W/m 14,7 C 26,9 C 4,2 km/h (1 Bft)
25/06/2008 10:00 29,0 C 39 % 1014,4 hPa 0,0 l/m 3,8 km/h (1 Bft) E-NE 1,00 h 0,356 mm 666 W/m 13,7 C 29,0 C 6,5 km/h (2 Bft)
25/06/2008 11:00 29,5 C 37 % 1014,6 hPa 0,0 l/m 8,3 km/h (2 Bft) E 1,00 h 0,483 mm 783 W/m 13,4 C 29,5 C 13,7 km/h (3 Bft)
25/06/2008 12:00 29,5 C 41 % 1014,8 hPa 0,0 l/m 6,0 km/h (2 Bft) E 1,00 h 0,610 mm 860 W/m 14,7 C 29,5 C 10,8 km/h (2 Bft)
25/06/2008 13:00 30,4 C 41 % 1014,8 hPa 0,0 l/m 10,1 km/h (2 Bft) E-NE 1,00 h 0,635 mm 895 W/m 15,6 C 30,4 C 15,0 km/h (3 Bft)
25/06/2008 14:00 29,8 C 45 % 1014,4 hPa 0,0 l/m 8,9 km/h (2 Bft) E 1,00 h 0,711 mm 874 W/m 16,6 C 29,8 C 13,6 km/h (3 Bft)
25/06/2008 15:00 29,3 C 48 % 1014,4 hPa 0,0 l/m 6,4 km/h (2 Bft) SE 1,00 h 0,660 mm 803 W/m 17,0 C 29,3 C 10,5 km/h (2 Bft)
25/06/2008 16:00 29,5 C 45 % 1014,4 hPa 0,0 l/m 5,8 km/h (2 Bft) E 1,00 h 0,584 mm 694 W/m 16,4 C 29,5 C 9,0 km/h (2 Bft)
25/06/2008 17:00 29,5 C 47 % 1014,2 hPa 0,0 l/m 4,4 km/h (1 Bft) E 1,00 h 0,508 mm 550 W/m 16,8 C 29,5 C 7,3 km/h (2 Bft)
25/06/2008 18:00 28,3 C 49 % 1013,9 hPa 0,0 l/m 3,0 km/h (1 Bft) E 1,00 h 0,406 mm 386 W/m 16,5 C 28,3 C 5,6 km/h (1 Bft)
25/06/2008 19:00 26,7 C 56 % 1013,9 hPa 0,0 l/m 1,0 km/h (0 Bft) E-SE 1,00 h 0,279 mm 209 W/m 17,3 C 26,7 C 3,1 km/h (1 Bft)
25/06/2008 20:00 25,0 C 60 % 1013,9 hPa 0,0 l/m 0,0 km/h (0 Bft) N 0,12 h 0,152 mm 45 W/m 16,6 C 25,0 C 0,2 km/h (0 Bft)
25/06/2008 21:00 22,9 C 65 % 1013,6 hPa 0,0 l/m 0,8 km/h (0 Bft) E-SE 0,03 h 0,025 mm 8 W/m 16,0 C 22,9 C 1,1 km/h (1 Bft)
25/06/2008 22:00 22,3 C 64 % 1013,7 hPa 0,0 l/m 3,2 km/h (1 Bft) O-NO 0,00 h 0,025 mm 0 W/m 15,1 C 22,3 C 4,7 km/h (1 Bft)
25/06/2008 23:00 22,6 C 59 % 1013,9 hPa 0,0 l/m 2,5 km/h (1 Bft) O-NO 0,00 h 0,051 mm 0 W/m 14,1 C 22,6 C 4,3 km/h (1 Bft)
26/06/2008 00:00 21,7 C 58 % 1013,8 hPa 0,0 l/m 2,6 km/h (1 Bft) O-NO 0,00 h 0,051 mm 0 W/m 13,2 C 21,7 C 4,7 km/h (1 Bft)
26/06/2008 01:00 21,5 C 59 % 1013,5 hPa 0,0 l/m 3,6 km/h (1 Bft) NO 0,00 h 0,051 mm 0 W/m 13,1 C 21,5 C 5,5 km/h (1 Bft)
26/06/2008 02:00 21,6 C 58 % 1013,6 hPa 0,0 l/m 2,1 km/h (1 Bft) O-NO 0,00 h 0,051 mm 0 W/m 12,9 C 21,6 C 3,5 km/h (1 Bft)
26/06/2008 03:00 20,8 C 61 % 1013,4 hPa 0,0 l/m 0,6 km/h (0 Bft) NO 0,00 h 0,051 mm 0 W/m 12,9 C 20,8 C 1,6 km/h (1 Bft)
26/06/2008 04:00 21,0 C 60 % 1013,4 hPa 0,0 l/m 4,0 km/h (1 Bft) NO 0,00 h 0,051 mm 0 W/m 12,8 C 21,0 C 5,4 km/h (1 Bft)
26/06/2008 05:00 20,9 C 60 % 1013,4 hPa 0,0 l/m 4,3 km/h (1 Bft) O 0,00 h 0,051 mm 6 W/m 12,7 C 20,9 C 5,6 km/h (1 Bft)
26/06/2008 06:00 20,3 C 62 % 1013,5 hPa 0,0 l/m 3,3 km/h (1 Bft) O-NO 0,02 h 0,025 mm 21 W/m 12,7 C 20,3 C 5,4 km/h (1 Bft)
26/06/2008 07:00 20,9 C 65 % 1013,9 hPa 0,0 l/m 1,4 km/h (1 Bft) NO 0,37 h 0,051 mm 121 W/m 14,1 C 20,9 C 2,5 km/h (1 Bft)
26/06/2008 08:00 24,5 C 55 % 1014,0 hPa 0,0 l/m 0,4 km/h (0 Bft) NO 1,00 h 0,076 mm 356 W/m 14,9 C 24,5 C 1,7 km/h (1 Bft)
26/06/2008 09:00 27,3 C 45 % 1014,5 hPa 0,0 l/m 2,0 km/h (1 Bft) E 1,00 h 0,229 mm 525 W/m 14,2 C 27,3 C 3,9 km/h (1 Bft)
26/06/2008 10:00 29,3 C 37 % 1014,5 hPa 0,0 l/m 3,1 km/h (1 Bft) E 1,00 h 0,356 mm 680 W/m 13,0 C 29,3 C 5,6 km/h (1 Bft)
26/06/2008 11:00 30,3 C 37 % 1014,7 hPa 0,0 l/m 6,2 km/h (2 Bft) E 1,00 h 0,483 mm 793 W/m 13,9 C 30,3 C 9,7 km/h (2 Bft)
26/06/2008 12:00 30,3 C 39 % 1014,7 hPa 0,0 l/m 9,1 km/h (2 Bft) E 1,00 h 0,610 mm 873 W/m 14,5 C 30,3 C 13,0 km/h (3 Bft)
26/06/2008 13:00 30,0 C 42 % 1014,7 hPa 0,0 l/m 10,4 km/h (2 Bft) E 1,00 h 0,686 mm 901 W/m 15,7 C 30,0 C 14,9 km/h (3 Bft)
26/06/2008 14:00 29,3 C 44 % 1014,9 hPa 0,0 l/m 9,6 km/h (2 Bft) E 1,00 h 0,711 mm 878 W/m 15,7 C 29,3 C 14,1 km/h (3 Bft)
26/06/2008 15:00 28,9 C 47 % 1014,8 hPa 0,0 l/m 7,5 km/h (2 Bft) E 1,00 h 0,686 mm 802 W/m 16,4 C 28,9 C 10,9 km/h (2 Bft)
26/06/2008 16:00 29,1 C 48 % 1014,4 hPa 0,0 l/m 7,4 km/h (2 Bft) E 1,00 h 0,610 mm 687 W/m 16,8 C 29,1 C 10,6 km/h (2 Bft)
26/06/2008 17:00 28,7 C 48 % 1014,0 hPa 0,0 l/m 6,0 km/h (2 Bft) E 1,00 h 0,533 mm 534 W/m 16,6 C 28,7 C 8,8 km/h (2 Bft)
26/06/2008 18:00 27,8 C 49 % 1013,8 hPa 0,0 l/m 3,4 km/h (1 Bft) E 1,00 h 0,406 mm 355 W/m 16,1 C 27,8 C 5,6 km/h (1 Bft)
26/06/2008 19:00 27,6 C 48 % 1013,4 hPa 0,0 l/m 2,9 km/h (1 Bft) S 1,00 h 0,279 mm 181 W/m 15,4 C 27,6 C 5,2 km/h (1 Bft)
26/06/2008 20:00 26,0 C 65 % 1013,2 hPa 0,0 l/m 0,4 km/h (0 Bft) SE 0,02 h 0,152 mm 43 W/m 18,7 C 26,0 C 1,7 km/h (1 Bft)
26/06/2008 21:00 23,9 C 74 % 1013,2 hPa 0,0 l/m 0,3 km/h (0 Bft) E-NE 0,03 h 0,051 mm 8 W/m 18,9 C 23,9 C 1,1 km/h (1 Bft)
26/06/2008 22:00 22,8 C 74 % 1013,6 hPa 0,0 l/m 0,2 km/h (0 Bft) E-NE 0,00 h 0,000 mm 0 W/m 18,0 C 22,8 C 1,0 km/h (0 Bft)
26/06/2008 23:00 22,1 C 75 % 1013,3 hPa 0,0 l/m 1,9 km/h (1 Bft) N-NO 0,00 h 0,025 mm 0 W/m 17,4 C 22,1 C 3,5 km/h (1 Bft)
27/06/2008 00:00 21,8 C 71 % 1013,1 hPa 0,0 l/m 0,7 km/h (0 Bft) N-NO 0,00 h 0,025 mm 0 W/m 16,2 C 21,8 C 1,5 km/h (1 Bft)
27/06/2008 01:00 21,3 C 73 % 1013,3 hPa 0,0 l/m 1,3 km/h (1 Bft) NE 0,00 h 0,025 mm 0 W/m 16,1 C 21,3 C 2,9 km/h (1 Bft)
27/06/2008 02:00 20,8 C 75 % 1013,2 hPa 0,0 l/m 1,0 km/h (0 Bft) N 0,00 h 0,025 mm 0 W/m 16,2 C 20,8 C 2,3 km/h (1 Bft)
27/06/2008 03:00 20,5 C 78 % 1012,9 hPa 0,0 l/m 0,6 km/h (0 Bft) N 0,00 h 0,025 mm 0 W/m 16,6 C 20,5 C 1,5 km/h (1 Bft)
27/06/2008 04:00 20,2 C 82 % 1012,2 hPa 0,0 l/m 0,8 km/h (0 Bft) N 0,00 h 0,025 mm 0 W/m 16,9 C 20,2 C 2,2 km/h (1 Bft)
27/06/2008 05:00 19,8 C 84 % 1012,1 hPa 0,0 l/m 0,6 km/h (0 Bft) N 0,00 h 0,025 mm 6 W/m 17,0 C 19,8 C 1,4 km/h (1 Bft)
27/06/2008 06:00 19,8 C 85 % 1012,0 hPa 0,0 l/m 0,5 km/h (0 Bft) N 0,15 h 0,000 mm 34 W/m 17,3 C 19,8 C 1,1 km/h (1 Bft)
27/06/2008 07:00 21,5 C 77 % 1012,5 hPa 0,0 l/m 0,5 km/h (0 Bft) N 0,45 h 0,025 mm 163 W/m 17,3 C 21,5 C 1,4 km/h (1 Bft)
27/06/2008 08:00 23,7 C 68 % 1012,7 hPa 0,0 l/m 3,8 km/h (1 Bft) E-NE 0,47 h 0,102 mm 229 W/m 17,3 C 23,7 C 6,2 km/h (2 Bft)
27/06/2008 09:00 24,3 C 70 % 1013,1 hPa 0,0 l/m 2,3 km/h (1 Bft) E 0,57 h 0,178 mm 337 W/m 18,6 C 24,3 C 4,1 km/h (1 Bft)
27/06/2008 10:00 26,4 C 69 % 1013,0 hPa 0,0 l/m 6,3 km/h (2 Bft) E 1,00 h 0,229 mm 653 W/m 20,1 C 26,4 C 10,0 km/h (2 Bft)
27/06/2008 11:00 27,1 C 63 % 1013,1 hPa 0,0 l/m 5,9 km/h (2 Bft) E 1,00 h 0,457 mm 768 W/m 19,3 C 27,1 C 10,2 km/h (2 Bft)
27/06/2008 12:00 28,1 C 57 % 1012,9 hPa 0,0 l/m 6,4 km/h (2 Bft) E 1,00 h 0,533 mm 849 W/m 18,6 C 28,1 C 12,1 km/h (2 Bft)
27/06/2008 13:00 28,8 C 52 % 1012,9 hPa 0,0 l/m 8,4 km/h (2 Bft) E 1,00 h 0,610 mm 883 W/m 17,8 C 28,8 C 13,5 km/h (3 Bft)
27/06/2008 14:00 29,2 C 48 % 1012,8 hPa 0,0 l/m 5,9 km/h (2 Bft) E 1,00 h 0,660 mm 865 W/m 16,8 C 29,2 C 10,1 km/h (2 Bft)
27/06/2008 15:00 30,3 C 44 % 1012,7 hPa 0,0 l/m 8,7 km/h (2 Bft) E-NE 1,00 h 0,635 mm 829 W/m 16,7 C 30,3 C 13,1 km/h (3 Bft)
27/06/2008 16:00 27,6 C 63 % 1012,5 hPa 0,0 l/m 5,9 km/h (2 Bft) E-SE 0,20 h 0,635 mm 243 W/m 19,7 C 27,6 C 8,7 km/h (2 Bft)
27/06/2008 17:00 25,9 C 70 % 1012,4 hPa 0,0 l/m 0,9 km/h (0 Bft) E-SE 0,22 h 0,203 mm 237 W/m 20,0 C 25,9 C 2,1 km/h (1 Bft)
27/06/2008 18:00 25,9 C 70 % 1011,9 hPa 0,0 l/m 2,3 km/h (1 Bft) E 0,13 h 0,152 mm 123 W/m 20,0 C 25,9 C 4,1 km/h (1 Bft)
27/06/2008 19:00 25,3 C 77 % 1011,7 hPa 0,0 l/m 0,2 km/h (0 Bft) E 0,63 h 0,102 mm 133 W/m 21,1 C 25,3 C 0,9 km/h (0 Bft)
27/06/2008 20:00 25,0 C 75 % 1011,4 hPa 0,0 l/m 1,0 km/h (0 Bft) E 0,10 h 0,102 mm 44 W/m 20,4 C 25,0 C 2,3 km/h (1 Bft)
27/06/2008 21:00 23,2 C 84 % 1011,7 hPa 0,0 l/m 0,3 km/h (0 Bft) E 0,03 h 0,051 mm 8 W/m 20,3 C 23,2 C 0,6 km/h (0 Bft)
27/06/2008 22:00 22,3 C 87 % 1012,0 hPa 0,0 l/m 0,7 km/h (0 Bft) E 0,00 h 0,000 mm 0 W/m 20,1 C 22,3 C 1,2 km/h (1 Bft)
27/06/2008 23:00 21,5 C 89 % 1012,2 hPa 0,0 l/m 2,5 km/h (1 Bft) E 0,00 h 0,025 mm 0 W/m 19,6 C 21,5 C 4,2 km/h (1 Bft)
28/06/2008 00:00 21,4 C 89 % 1012,3 hPa 0,0 l/m 0,4 km/h (0 Bft) E 0,00 h 0,025 mm 0 W/m 19,5 C 21,4 C 0,9 km/h (0 Bft)
28/06/2008 01:00 21,0 C 86 % 1012,4 hPa 0,0 l/m 1,9 km/h (1 Bft) E 0,00 h 0,025 mm 0 W/m 18,6 C 21,0 C 3,4 km/h (1 Bft)
28/06/2008 02:00 20,9 C 87 % 1012,4 hPa 0,0 l/m 1,1 km/h (1 Bft) E 0,00 h 0,025 mm 0 W/m 18,6 C 20,9 C 2,6 km/h (1 Bft)
28/06/2008 03:00 20,4 C 87 % 1012,0 hPa 0,0 l/m 2,7 km/h (1 Bft) E 0,00 h 0,025 mm 0 W/m 18,2 C 20,4 C 3,9 km/h (1 Bft)
28/06/2008 04:00 20,5 C 83 % 1012,4 hPa 0,0 l/m 0,3 km/h (0 Bft) E 0,00 h 0,025 mm 0 W/m 17,4 C 20,5 C 0,7 km/h (0 Bft)
28/06/2008 05:00 20,4 C 81 % 1013,0 hPa 0,0 l/m 0,6 km/h (0 Bft) E 0,00 h 0,025 mm 5 W/m 17,0 C 20,4 C 1,4 km/h (1 Bft)
28/06/2008 06:00 20,7 C 80 % 1013,2 hPa 0,0 l/m 0,6 km/h (0 Bft) E 0,02 h 0,000 mm 24 W/m 17,2 C 20,7 C 1,2 km/h (1 Bft)
28/06/2008 07:00 21,8 C 76 % 1013,4 hPa 0,0 l/m 0,5 km/h (0 Bft) E 0,32 h 0,025 mm 114 W/m 17,4 C 21,8 C 1,4 km/h (1 Bft)
28/06/2008 08:00 24,5 C 70 % 1013,4 hPa 0,0 l/m 1,1 km/h (1 Bft) E 1,00 h 0,076 mm 332 W/m 18,7 C 24,5 C 2,9 km/h (1 Bft)
28/06/2008 09:00 27,0 C 63 % 1013,8 hPa 0,0 l/m 3,9 km/h (1 Bft) E 1,00 h 0,229 mm 497 W/m 19,2 C 27,0 C 6,6 km/h (2 Bft)
28/06/2008 10:00 27,9 C 61 % 1014,3 hPa 0,0 l/m 4,5 km/h (1 Bft) E-SE 1,00 h 0,356 mm 647 W/m 19,5 C 27,9 C 7,9 km/h (2 Bft)
28/06/2008 11:00 29,6 C 55 % 1014,6 hPa 0,0 l/m 5,0 km/h (1 Bft) E 1,00 h 0,457 mm 768 W/m 19,6 C 29,6 C 8,3 km/h (2 Bft)
28/06/2008 12:00 30,5 C 52 % 1014,9 hPa 0,0 l/m 6,6 km/h (2 Bft) E 1,00 h 0,559 mm 844 W/m 19,4 C 30,5 C 10,4 km/h (2 Bft)
28/06/2008 13:00 31,2 C 45 % 1014,9 hPa 0,0 l/m 5,0 km/h (1 Bft) E 1,00 h 0,635 mm 875 W/m 17,9 C 31,2 C 8,2 km/h (2 Bft)
28/06/2008 14:00 32,3 C 42 % 1014,8 hPa 0,0 l/m 8,0 km/h (2 Bft) E 1,00 h 0,635 mm 855 W/m 17,8 C 32,3 C 11,7 km/h (2 Bft)
28/06/2008 15:00 32,0 C 46 % 1014,7 hPa 0,0 l/m 6,7 km/h (2 Bft) E 1,00 h 0,660 mm 788 W/m 18,7 C 32,0 C 10,7 km/h (2 Bft)
28/06/2008 16:00 31,3 C 47 % 1014,5 hPa 0,0 l/m 7,3 km/h (2 Bft) S 1,00 h 0,610 mm 672 W/m 18,5 C 31,3 C 12,0 km/h (2 Bft)
28/06/2008 17:00 30,2 C 48 % 1014,6 hPa 0,0 l/m 5,3 km/h (1 Bft) S 0,18 h 0,533 mm 208 W/m 18,1 C 30,2 C 7,9 km/h (2 Bft)
28/06/2008 18:00 28,9 C 54 % 1014,4 hPa 0,0 l/m 3,6 km/h (1 Bft) S 0,00 h 0,203 mm 162 W/m 18,7 C 28,9 C 5,5 km/h (1 Bft)
28/06/2008 19:00 28,6 C 58 % 1014,3 hPa 0,0 l/m 0,3 km/h (0 Bft) O-NO 0,02 h 0,152 mm 97 W/m 19,5 C 28,6 C 1,2 km/h (1 Bft)
28/06/2008 20:00 28,0 C 60 % 1014,2 hPa 0,0 l/m 0,6 km/h (0 Bft) O-NO 0,65 h 0,076 mm 63 W/m 19,4 C 28,0 C 1,5 km/h (1 Bft)
28/06/2008 21:00 26,5 C 65 % 1014,4 hPa 0,0 l/m 0,2 km/h (0 Bft) O-NO 0,12 h 0,051 mm 14 W/m 19,5 C 26,5 C 0,9 km/h (0 Bft)
28/06/2008 22:00 25,3 C 72 % 1014,9 hPa 0,0 l/m 0,1 km/h (0 Bft) O-NO 0,00 h 0,025 mm 0 W/m 19,8 C 25,3 C 0,2 km/h (0 Bft)
28/06/2008 23:00 24,8 C 71 % 1015,3 hPa 0,0 l/m 1,1 km/h (1 Bft) O-NO 0,00 h 0,025 mm 0 W/m 19,2 C 24,8 C 2,1 km/h (1 Bft)
29/06/2008 00:00 24,5 C 68 % 1015,3 hPa 0,0 l/m 1,7 km/h (1 Bft) O-NO 0,00 h 0,051 mm 0 W/m 18,2 C 24,5 C 2,5 km/h (1 Bft)
29/06/2008 01:00 24,2 C 66 % 1015,2 hPa 0,0 l/m 2,4 km/h (1 Bft) O-NO 0,00 h 0,051 mm 0 W/m 17,5 C 24,2 C 3,9 km/h (1 Bft)
29/06/2008 02:00 24,1 C 65 % 1014,8 hPa 0,0 l/m 5,3 km/h (1 Bft) O-NO 0,00 h 0,051 mm 0 W/m 17,0 C 24,1 C 7,0 km/h (2 Bft)
29/06/2008 03:00 23,7 C 64 % 1014,6 hPa 0,0 l/m 3,4 km/h (1 Bft) O-NO 0,00 h 0,051 mm 0 W/m 16,6 C 23,7 C 5,9 km/h (2 Bft)
29/06/2008 04:00 23,7 C 64 % 1014,4 hPa 0,0 l/m 2,6 km/h (1 Bft) NO 0,00 h 0,051 mm 0 W/m 16,4 C 23,7 C 4,3 km/h (1 Bft)
29/06/2008 05:00 23,7 C 62 % 1014,5 hPa 0,0 l/m 3,7 km/h (1 Bft) NO 0,00 h 0,051 mm 5 W/m 16,0 C 23,7 C 5,1 km/h (1 Bft)
29/06/2008 06:00 23,7 C 62 % 1014,8 hPa 0,0 l/m 0,6 km/h (0 Bft) O-NO 0,02 h 0,025 mm 27 W/m 16,0 C 23,7 C 1,0 km/h (0 Bft)
29/06/2008 07:00 24,2 C 64 % 1015,3 hPa 0,0 l/m 0,2 km/h (0 Bft) O-NO 0,30 h 0,025 mm 110 W/m 17,0 C 24,2 C 0,8 km/h (0 Bft)
29/06/2008 08:00 26,2 C 61 % 1015,4 hPa 0,0 l/m 0,2 km/h (0 Bft) O-NO 1,00 h 0,076 mm 294 W/m 18,2 C 26,2 C 1,3 km/h (1 Bft)
29/06/2008 09:00 28,7 C 54 % 1015,6 hPa 0,0 l/m 1,7 km/h (1 Bft) E-SE 1,00 h 0,203 mm 464 W/m 18,5 C 28,7 C 3,4 km/h (1 Bft)
29/06/2008 10:00 30,3 C 50 % 1015,8 hPa 0,0 l/m 3,9 km/h (1 Bft) E-SE 1,00 h 0,330 mm 615 W/m 18,8 C 30,3 C 6,7 km/h (2 Bft)
29/06/2008 11:00 31,1 C 53 % 1015,8 hPa 0,0 l/m 5,8 km/h (2 Bft) E-SE 1,00 h 0,457 mm 735 W/m 20,2 C 31,1 C 9,2 km/h (2 Bft)
29/06/2008 12:00 31,5 C 53 % 1015,8 hPa 0,0 l/m 7,1 km/h (2 Bft) E 1,00 h 0,559 mm 819 W/m 20,7 C 31,5 C 10,7 km/h (2 Bft)
29/06/2008 13:00 32,3 C 51 % 1015,7 hPa 0,0 l/m 10,2 km/h (2 Bft) E 1,00 h 0,610 mm 857 W/m 20,8 C 32,3 C 14,7 km/h (3 Bft)
29/06/2008 14:00 32,5 C 51 % 1015,3 hPa 0,0 l/m 10,1 km/h (2 Bft) E 1,00 h 0,686 mm 845 W/m 20,9 C 32,5 C 15,0 km/h (3 Bft)
29/06/2008 15:00 32,6 C 50 % 1014,9 hPa 0,0 l/m 7,5 km/h (2 Bft) E 1,00 h 0,686 mm 776 W/m 20,6 C 32,6 C 11,7 km/h (2 Bft)
29/06/2008 16:00 31,4 C 52 % 1014,7 hPa 0,0 l/m 7,3 km/h (2 Bft) S-SE 1,00 h 0,610 mm 665 W/m 20,4 C 31,4 C 11,9 km/h (2 Bft)
29/06/2008 17:00 30,8 C 51 % 1014,7 hPa 0,0 l/m 6,0 km/h (2 Bft) E 1,00 h 0,508 mm 522 W/m 19,5 C 30,8 C 9,3 km/h (2 Bft)
29/06/2008 18:00 30,3 C 50 % 1014,5 hPa 0,0 l/m 6,2 km/h (2 Bft) E 0,95 h 0,406 mm 343 W/m 18,8 C 30,3 C 9,5 km/h (2 Bft)
29/06/2008 19:00 28,7 C 48 % 1014,6 hPa 0,0 l/m 3,5 km/h (1 Bft) SE 1,00 h 0,305 mm 190 W/m 16,5 C 28,7 C 5,8 km/h (2 Bft)
29/06/2008 20:00 27,0 C 51 % 1014,7 hPa 0,0 l/m 1,3 km/h (1 Bft) SE 0,03 h 0,178 mm 39 W/m 16,0 C 27,0 C 2,6 km/h (1 Bft)
29/06/2008 21:00 24,9 C 66 % 1014,9 hPa 0,0 l/m 1,4 km/h (1 Bft) NE 0,00 h 0,051 mm 7 W/m 18,1 C 24,9 C 2,8 km/h (1 Bft)
29/06/2008 22:00 23,2 C 75 % 1015,2 hPa 0,0 l/m 0,3 km/h (0 Bft) NE 0,00 h 0,025 mm 0 W/m 18,5 C 23,2 C 0,6 km/h (0 Bft)
29/06/2008 23:00 22,7 C 76 % 1015,2 hPa 0,0 l/m 1,0 km/h (0 Bft) NE 0,00 h 0,025 mm 0 W/m 18,3 C 22,7 C 1,4 km/h (1 Bft)
Min-Date _ 24/06/08 25/06/08 27/06/08 - 23/06/08 - - - - 25/06/08 24/06/08 23/06/08
_ Min-Heure 06:06 10:59 20:00 - 00:02 - - - - 04:48 06:06 00:02
Minimum _ 18,1 C 32 % 1011,3 hPa - 0,0 km/h (0 Bft) - - - - 9,3 C 18,1 C 0,0 km/h (0 Bft)
Max-Date _ 29/06/08 27/06/08 23/06/08 23/06/08 25/06/08 - 23/06/08 25/06/08 23/06/08 29/06/08 29/06/08 25/06/08
_ Max-Heure 15:01 23:48 12:15 00:00 13:52 - 06:02 14:00 13:35 14:30 15:01 13:52
Maximum _ 33,7 C 90 % 1018,1 hPa 0,0 l/m 17,7 km/h
E-NE (3 Bft)
- 0,02 h 0,711 mm 923 W/m 21,9 C 33,7 C 24,1 km/h
E-NE (4 Bft)
Moyenne _ 25,2 C 61 % 1014,6 hPa #0,0 l/m 3,5 km/h (1 Bft) E #80:35 h #40,709 mm 434 W/m 16,8 C 25,2 C 5,7 km/h (1 Bft)
Roquefort les pins